sensor_id;sensor_type;location;lat;lon;timestamp;P1;durP1;ratioP1;P2;durP2;ratioP2
51146;SDS011;37207;53.060;18.726;2024-01-25T00:02:10;6.10;;;3.20;;
51146;SDS011;37207;53.060;18.726;2024-01-25T00:04:37;12.10;;;7.10;;
51146;SDS011;37207;53.060;18.726;2024-01-25T00:07:03;9.90;;;5.40;;
51146;SDS011;37207;53.060;18.726;2024-01-25T00:09:30;6.80;;;2.00;;
51146;SDS011;37207;53.060;18.726;2024-01-25T00:11:57;8.70;;;2.70;;
51146;SDS011;37207;53.060;18.726;2024-01-25T00:14:24;7.50;;;4.40;;
51146;SDS011;37207;53.060;18.726;2024-01-25T00:16:50;5.10;;;3.40;;
51146;SDS011;37207;53.060;18.726;2024-01-25T00:19:17;5.20;;;2.40;;
51146;SDS011;37207;53.060;18.726;2024-01-25T00:21:44;9.60;;;3.80;;
51146;SDS011;37207;53.060;18.726;2024-01-25T00:24:11;2.20;;;0.80;;
51146;SDS011;37207;53.060;18.726;2024-01-25T00:26:39;10.70;;;1.10;;
51146;SDS011;37207;53.060;18.726;2024-01-25T00:29:06;3.30;;;1.80;;
51146;SDS011;37207;53.060;18.726;2024-01-25T00:31:32;3.00;;;0.70;;
51146;SDS011;37207;53.060;18.726;2024-01-25T00:34:00;5.80;;;1.00;;
51146;SDS011;37207;53.060;18.726;2024-01-25T00:36:26;5.70;;;2.80;;
51146;SDS011;37207;53.060;18.726;2024-01-25T00:38:53;5.90;;;2.40;;
51146;SDS011;37207;53.060;18.726;2024-01-25T00:41:20;4.60;;;0.70;;
51146;SDS011;37207;53.060;18.726;2024-01-25T00:43:47;6.50;;;2.60;;
51146;SDS011;37207;53.060;18.726;2024-01-25T00:46:14;3.30;;;0.60;;
51146;SDS011;37207;53.060;18.726;2024-01-25T00:48:41;8.50;;;3.00;;
51146;SDS011;37207;53.060;18.726;2024-01-25T00:51:10;4.40;;;0.70;;
51146;SDS011;37207;53.060;18.726;2024-01-25T00:53:41;7.40;;;3.00;;
51146;SDS011;37207;53.060;18.726;2024-01-25T00:56:08;5.80;;;3.20;;
51146;SDS011;37207;53.060;18.726;2024-01-25T00:58:35;7.40;;;3.40;;
51146;SDS011;37207;53.060;18.726;2024-01-25T01:01:02;11.60;;;3.10;;
51146;SDS011;37207;53.060;18.726;2024-01-25T01:03:29;2.60;;;1.30;;
51146;SDS011;37207;53.060;18.726;2024-01-25T01:05:55;19.90;;;5.10;;
51146;SDS011;37207;53.060;18.726;2024-01-25T01:08:24;13.90;;;5.10;;
51146;SDS011;37207;53.060;18.726;2024-01-25T01:10:51;11.20;;;3.90;;
51146;SDS011;37207;53.060;18.726;2024-01-25T01:13:18;15.50;;;5.90;;
51146;SDS011;37207;53.060;18.726;2024-01-25T01:15:44;13.60;;;4.60;;
51146;SDS011;37207;53.060;18.726;2024-01-25T01:18:11;12.80;;;4.70;;
51146;SDS011;37207;53.060;18.726;2024-01-25T01:20:38;12.90;;;4.60;;
51146;SDS011;37207;53.060;18.726;2024-01-25T01:23:04;10.50;;;3.70;;
51146;SDS011;37207;53.060;18.726;2024-01-25T01:25:31;19.40;;;5.70;;
51146;SDS011;37207;53.060;18.726;2024-01-25T01:27:57;18.40;;;6.00;;
51146;SDS011;37207;53.060;18.726;2024-01-25T01:30:24;15.60;;;1.90;;
51146;SDS011;37207;53.060;18.726;2024-01-25T01:32:50;11.40;;;0.90;;
51146;SDS011;37207;53.060;18.726;2024-01-25T01:35:17;15.20;;;4.70;;
51146;SDS011;37207;53.060;18.726;2024-01-25T01:37:44;16.00;;;4.60;;
51146;SDS011;37207;53.060;18.726;2024-01-25T01:40:10;14.90;;;4.90;;
51146;SDS011;37207;53.060;18.726;2024-01-25T01:42:37;9.60;;;4.20;;
51146;SDS011;37207;53.060;18.726;2024-01-25T01:45:04;10.90;;;4.60;;
51146;SDS011;37207;53.060;18.726;2024-01-25T01:47:31;5.10;;;1.40;;
51146;SDS011;37207;53.060;18.726;2024-01-25T01:49:57;8.60;;;1.30;;
51146;SDS011;37207;53.060;18.726;2024-01-25T01:52:24;6.00;;;1.50;;
51146;SDS011;37207;53.060;18.726;2024-01-25T01:54:51;9.40;;;3.80;;
51146;SDS011;37207;53.060;18.726;2024-01-25T01:57:18;9.20;;;3.70;;
51146;SDS011;37207;53.060;18.726;2024-01-25T01:59:44;12.10;;;4.10;;
51146;SDS011;37207;53.060;18.726;2024-01-25T02:02:12;10.20;;;3.90;;
51146;SDS011;37207;53.060;18.726;2024-01-25T02:04:39;9.70;;;1.60;;
51146;SDS011;37207;53.060;18.726;2024-01-25T02:07:05;10.30;;;3.20;;
51146;SDS011;37207;53.060;18.726;2024-01-25T02:09:33;6.90;;;1.40;;
51146;SDS011;37207;53.060;18.726;2024-01-25T02:12:01;11.00;;;4.00;;
51146;SDS011;37207;53.060;18.726;2024-01-25T02:14:28;11.60;;;3.40;;
51146;SDS011;37207;53.060;18.726;2024-01-25T02:16:55;9.50;;;3.30;;
51146;SDS011;37207;53.060;18.726;2024-01-25T02:19:22;9.30;;;3.50;;
51146;SDS011;37207;53.060;18.726;2024-01-25T02:21:48;10.00;;;3.50;;
51146;SDS011;37207;53.060;18.726;2024-01-25T02:24:17;16.50;;;4.30;;
51146;SDS011;37207;53.060;18.726;2024-01-25T02:26:43;10.50;;;3.40;;
51146;SDS011;37207;53.060;18.726;2024-01-25T02:29:11;14.40;;;5.20;;
51146;SDS011;37207;53.060;18.726;2024-01-25T02:31:37;2.90;;;1.20;;
51146;SDS011;37207;53.060;18.726;2024-01-25T02:34:04;12.90;;;4.30;;
51146;SDS011;37207;53.060;18.726;2024-01-25T02:36:30;7.40;;;1.70;;
51146;SDS011;37207;53.060;18.726;2024-01-25T02:38:57;10.10;;;3.90;;
51146;SDS011;37207;53.060;18.726;2024-01-25T02:41:23;17.30;;;4.50;;
51146;SDS011;37207;53.060;18.726;2024-01-25T02:43:50;14.20;;;5.10;;
51146;SDS011;37207;53.060;18.726;2024-01-25T02:46:16;12.90;;;1.40;;
51146;SDS011;37207;53.060;18.726;2024-01-25T02:48:43;11.50;;;4.20;;
51146;SDS011;37207;53.060;18.726;2024-01-25T02:51:09;13.40;;;4.20;;
51146;SDS011;37207;53.060;18.726;2024-01-25T02:53:36;10.20;;;3.90;;
51146;SDS011;37207;53.060;18.726;2024-01-25T02:56:02;10.60;;;4.60;;
51146;SDS011;37207;53.060;18.726;2024-01-25T02:58:29;9.60;;;1.30;;
51146;SDS011;37207;53.060;18.726;2024-01-25T03:00:56;16.20;;;3.60;;
51146;SDS011;37207;53.060;18.726;2024-01-25T03:03:22;10.70;;;3.30;;
51146;SDS011;37207;53.060;18.726;2024-01-25T03:05:53;4.00;;;1.10;;
51146;SDS011;37207;53.060;18.726;2024-01-25T03:08:19;16.20;;;5.00;;
51146;SDS011;37207;53.060;18.726;2024-01-25T03:10:46;4.30;;;1.40;;
51146;SDS011;37207;53.060;18.726;2024-01-25T03:13:15;9.30;;;3.60;;
51146;SDS011;37207;53.060;18.726;2024-01-25T03:15:45;9.40;;;3.40;;
51146;SDS011;37207;53.060;18.726;2024-01-25T03:18:12;4.70;;;1.50;;
51146;SDS011;37207;53.060;18.726;2024-01-25T03:20:38;11.10;;;3.90;;
51146;SDS011;37207;53.060;18.726;2024-01-25T03:23:05;10.30;;;3.50;;
51146;SDS011;37207;53.060;18.726;2024-01-25T03:25:31;6.60;;;1.00;;
51146;SDS011;37207;53.060;18.726;2024-01-25T03:27:58;7.40;;;1.50;;
51146;SDS011;37207;53.060;18.726;2024-01-25T03:30:26;3.90;;;1.10;;
51146;SDS011;37207;53.060;18.726;2024-01-25T03:32:52;6.10;;;3.10;;
51146;SDS011;37207;53.060;18.726;2024-01-25T03:35:19;8.40;;;3.30;;
51146;SDS011;37207;53.060;18.726;2024-01-25T03:37:45;6.80;;;2.60;;
51146;SDS011;37207;53.060;18.726;2024-01-25T03:40:12;8.60;;;2.90;;
51146;SDS011;37207;53.060;18.726;2024-01-25T03:42:38;9.60;;;3.30;;
51146;SDS011;37207;53.060;18.726;2024-01-25T03:45:05;14.10;;;2.80;;
51146;SDS011;37207;53.060;18.726;2024-01-25T03:47:34;6.20;;;1.20;;
51146;SDS011;37207;53.060;18.726;2024-01-25T03:50:00;7.80;;;3.10;;
51146;SDS011;37207;53.060;18.726;2024-01-25T03:52:27;7.50;;;3.30;;
51146;SDS011;37207;53.060;18.726;2024-01-25T03:54:56;5.50;;;0.90;;
51146;SDS011;37207;53.060;18.726;2024-01-25T03:57:23;9.10;;;3.50;;
51146;SDS011;37207;53.060;18.726;2024-01-25T03:59:50;8.50;;;3.70;;
51146;SDS011;37207;53.060;18.726;2024-01-25T04:02:19;8.20;;;3.60;;
51146;SDS011;37207;53.060;18.726;2024-01-25T04:04:46;6.00;;;1.90;;
51146;SDS011;37207;53.060;18.726;2024-01-25T04:07:12;1.00;;;0.30;;
51146;SDS011;37207;53.060;18.726;2024-01-25T04:09:39;7.90;;;3.40;;
51146;SDS011;37207;53.060;18.726;2024-01-25T04:12:06;9.00;;;0.80;;
51146;SDS011;37207;53.060;18.726;2024-01-25T04:14:33;5.80;;;0.70;;
51146;SDS011;37207;53.060;18.726;2024-01-25T04:16:59;13.50;;;1.20;;
51146;SDS011;37207;53.060;18.726;2024-01-25T04:19:26;7.80;;;2.40;;
51146;SDS011;37207;53.060;18.726;2024-01-25T04:21:52;5.40;;;2.30;;
51146;SDS011;37207;53.060;18.726;2024-01-25T04:24:19;11.30;;;3.20;;
51146;SDS011;37207;53.060;18.726;2024-01-25T04:26:45;1.50;;;0.60;;
51146;SDS011;37207;53.060;18.726;2024-01-25T04:29:12;9.50;;;2.60;;
51146;SDS011;37207;53.060;18.726;2024-01-25T04:31:42;6.00;;;2.60;;
51146;SDS011;37207;53.060;18.726;2024-01-25T04:34:12;9.20;;;0.60;;
51146;SDS011;37207;53.060;18.726;2024-01-25T04:36:39;7.30;;;2.90;;
51146;SDS011;37207;53.060;18.726;2024-01-25T04:39:06;7.60;;;2.50;;
51146;SDS011;37207;53.060;18.726;2024-01-25T04:41:32;6.90;;;2.20;;
51146;SDS011;37207;53.060;18.726;2024-01-25T04:43:59;5.60;;;2.20;;
51146;SDS011;37207;53.060;18.726;2024-01-25T04:46:25;5.10;;;2.00;;
51146;SDS011;37207;53.060;18.726;2024-01-25T04:48:53;3.80;;;0.40;;
51146;SDS011;37207;53.060;18.726;2024-01-25T04:51:19;2.30;;;0.40;;
51146;SDS011;37207;53.060;18.726;2024-01-25T04:53:47;6.60;;;2.30;;
51146;SDS011;37207;53.060;18.726;2024-01-25T04:56:14;6.10;;;2.50;;
51146;SDS011;37207;53.060;18.726;2024-01-25T04:58:42;14.10;;;1.80;;
51146;SDS011;37207;53.060;18.726;2024-01-25T05:01:09;5.60;;;2.10;;
51146;SDS011;37207;53.060;18.726;2024-01-25T05:03:37;4.80;;;2.30;;
51146;SDS011;37207;53.060;18.726;2024-01-25T05:06:04;5.90;;;0.50;;
51146;SDS011;37207;53.060;18.726;2024-01-25T05:08:31;5.40;;;1.70;;
51146;SDS011;37207;53.060;18.726;2024-01-25T05:10:57;0.30;;;0.20;;
51146;SDS011;37207;53.060;18.726;2024-01-25T05:13:24;6.20;;;2.00;;
51146;SDS011;37207;53.060;18.726;2024-01-25T05:15:50;2.10;;;0.20;;
51146;SDS011;37207;53.060;18.726;2024-01-25T05:18:17;0.90;;;0.30;;
51146;SDS011;37207;53.060;18.726;2024-01-25T05:20:44;1.50;;;1.10;;
51146;SDS011;37207;53.060;18.726;2024-01-25T05:23:11;1.40;;;0.50;;
51146;SDS011;37207;53.060;18.726;2024-01-25T05:25:37;4.30;;;1.30;;
51146;SDS011;37207;53.060;18.726;2024-01-25T05:28:04;3.60;;;0.50;;
51146;SDS011;37207;53.060;18.726;2024-01-25T05:30:31;2.50;;;0.40;;
51146;SDS011;37207;53.060;18.726;2024-01-25T05:32:58;3.30;;;1.30;;
51146;SDS011;37207;53.060;18.726;2024-01-25T05:35:24;3.60;;;1.20;;
51146;SDS011;37207;53.060;18.726;2024-01-25T05:37:51;4.30;;;1.70;;
51146;SDS011;37207;53.060;18.726;2024-01-25T05:40:18;3.20;;;1.50;;
51146;SDS011;37207;53.060;18.726;2024-01-25T05:42:44;1.60;;;1.40;;
51146;SDS011;37207;53.060;18.726;2024-01-25T05:45:11;2.00;;;0.90;;
51146;SDS011;37207;53.060;18.726;2024-01-25T05:47:38;0.80;;;0.50;;
51146;SDS011;37207;53.060;18.726;2024-01-25T05:50:07;1.30;;;0.70;;
51146;SDS011;37207;53.060;18.726;2024-01-25T05:52:34;2.50;;;1.30;;
51146;SDS011;37207;53.060;18.726;2024-01-25T05:57:31;3.60;;;0.60;;
51146;SDS011;37207;53.060;18.726;2024-01-25T05:59:58;3.40;;;1.90;;
51146;SDS011;37207;53.060;18.726;2024-01-25T06:02:25;2.50;;;1.10;;
51146;SDS011;37207;53.060;18.726;2024-01-25T06:04:51;3.00;;;1.30;;
51146;SDS011;37207;53.060;18.726;2024-01-25T06:07:18;3.90;;;1.80;;
51146;SDS011;37207;53.060;18.726;2024-01-25T06:09:46;1.80;;;0.30;;
51146;SDS011;37207;53.060;18.726;2024-01-25T06:12:13;3.10;;;0.50;;
51146;SDS011;37207;53.060;18.726;2024-01-25T06:14:40;2.40;;;0.40;;
51146;SDS011;37207;53.060;18.726;2024-01-25T06:17:07;3.40;;;1.70;;
51146;SDS011;37207;53.060;18.726;2024-01-25T06:19:34;4.30;;;2.00;;
51146;SDS011;37207;53.060;18.726;2024-01-25T06:22:01;0.70;;;0.40;;
51146;SDS011;37207;53.060;18.726;2024-01-25T06:24:29;3.70;;;1.70;;
51146;SDS011;37207;53.060;18.726;2024-01-25T06:26:55;1.10;;;0.40;;
51146;SDS011;37207;53.060;18.726;2024-01-25T06:29:22;2.30;;;1.40;;
51146;SDS011;37207;53.060;18.726;2024-01-25T06:31:49;2.80;;;0.40;;
51146;SDS011;37207;53.060;18.726;2024-01-25T06:34:15;2.30;;;0.60;;
51146;SDS011;37207;53.060;18.726;2024-01-25T06:36:42;1.30;;;0.40;;
51146;SDS011;37207;53.060;18.726;2024-01-25T06:39:08;1.60;;;0.50;;
51146;SDS011;37207;53.060;18.726;2024-01-25T06:41:35;3.50;;;2.10;;
51146;SDS011;37207;53.060;18.726;2024-01-25T06:44:01;2.40;;;0.70;;
51146;SDS011;37207;53.060;18.726;2024-01-25T06:46:29;4.40;;;2.40;;
51146;SDS011;37207;53.060;18.726;2024-01-25T06:48:55;2.30;;;0.70;;
51146;SDS011;37207;53.060;18.726;2024-01-25T06:51:22;0.70;;;0.70;;
51146;SDS011;37207;53.060;18.726;2024-01-25T06:53:48;2.10;;;1.50;;
51146;SDS011;37207;53.060;18.726;2024-01-25T06:56:15;3.50;;;1.40;;
51146;SDS011;37207;53.060;18.726;2024-01-25T06:58:41;3.40;;;1.00;;
51146;SDS011;37207;53.060;18.726;2024-01-25T07:01:08;1.70;;;1.20;;
51146;SDS011;37207;53.060;18.726;2024-01-25T07:03:35;1.90;;;1.10;;
51146;SDS011;37207;53.060;18.726;2024-01-25T07:06:02;0.50;;;0.40;;
51146;SDS011;37207;53.060;18.726;2024-01-25T07:08:30;1.70;;;0.90;;
51146;SDS011;37207;53.060;18.726;2024-01-25T07:10:56;0.80;;;0.40;;
51146;SDS011;37207;53.060;18.726;2024-01-25T07:15:52;0.50;;;0.20;;
51146;SDS011;37207;53.060;18.726;2024-01-25T07:18:18;1.70;;;0.80;;
51146;SDS011;37207;53.060;18.726;2024-01-25T07:20:45;1.20;;;0.70;;
51146;SDS011;37207;53.060;18.726;2024-01-25T07:23:12;2.10;;;1.20;;
51146;SDS011;37207;53.060;18.726;2024-01-25T07:25:38;0.20;;;0.10;;
51146;SDS011;37207;53.060;18.726;2024-01-25T07:28:05;1.90;;;1.10;;
51146;SDS011;37207;53.060;18.726;2024-01-25T07:30:32;0.30;;;0.30;;
51146;SDS011;37207;53.060;18.726;2024-01-25T07:32:58;3.00;;;1.70;;
51146;SDS011;37207;53.060;18.726;2024-01-25T07:35:25;1.40;;;0.60;;
51146;SDS011;37207;53.060;18.726;2024-01-25T07:37:51;1.00;;;0.30;;
51146;SDS011;37207;53.060;18.726;2024-01-25T07:40:18;1.20;;;0.40;;
51146;SDS011;37207;53.060;18.726;2024-01-25T07:42:46;1.60;;;1.00;;
51146;SDS011;37207;53.060;18.726;2024-01-25T07:45:13;2.00;;;1.70;;
51146;SDS011;37207;53.060;18.726;2024-01-25T07:47:43;2.10;;;0.90;;
51146;SDS011;37207;53.060;18.726;2024-01-25T07:50:10;0.60;;;0.40;;
51146;SDS011;37207;53.060;18.726;2024-01-25T07:52:37;2.70;;;2.10;;
51146;SDS011;37207;53.060;18.726;2024-01-25T07:55:03;0.50;;;0.30;;
51146;SDS011;37207;53.060;18.726;2024-01-25T07:57:30;4.40;;;0.60;;
51146;SDS011;37207;53.060;18.726;2024-01-25T07:59:57;2.50;;;2.00;;
51146;SDS011;37207;53.060;18.726;2024-01-25T08:02:23;2.20;;;1.50;;
51146;SDS011;37207;53.060;18.726;2024-01-25T08:04:50;2.90;;;1.20;;
51146;SDS011;37207;53.060;18.726;2024-01-25T08:07:16;0.70;;;0.40;;
51146;SDS011;37207;53.060;18.726;2024-01-25T08:09:43;1.70;;;0.60;;
51146;SDS011;37207;53.060;18.726;2024-01-25T08:12:09;3.90;;;2.10;;
51146;SDS011;37207;53.060;18.726;2024-01-25T08:14:36;2.50;;;1.60;;
51146;SDS011;37207;53.060;18.726;2024-01-25T08:17:02;1.90;;;1.40;;
51146;SDS011;37207;53.060;18.726;2024-01-25T08:19:29;2.20;;;1.10;;
51146;SDS011;37207;53.060;18.726;2024-01-25T08:21:55;0.30;;;0.10;;
51146;SDS011;37207;53.060;18.726;2024-01-25T08:24:22;2.20;;;1.10;;
51146;SDS011;37207;53.060;18.726;2024-01-25T08:26:49;0.50;;;0.30;;
51146;SDS011;37207;53.060;18.726;2024-01-25T08:29:16;3.50;;;1.70;;
51146;SDS011;37207;53.060;18.726;2024-01-25T08:31:42;5.40;;;0.40;;
51146;SDS011;37207;53.060;18.726;2024-01-25T08:34:35;1.10;;;0.80;;
51146;SDS011;37207;53.060;18.726;2024-01-25T08:37:03;1.70;;;1.00;;
51146;SDS011;37207;53.060;18.726;2024-01-25T08:39:45;3.80;;;1.20;;
51146;SDS011;37207;53.060;18.726;2024-01-25T08:42:32;1.20;;;0.30;;
51146;SDS011;37207;53.060;18.726;2024-01-25T08:44:58;2.70;;;1.50;;
51146;SDS011;37207;53.060;18.726;2024-01-25T08:47:25;0.60;;;0.60;;
51146;SDS011;37207;53.060;18.726;2024-01-25T08:49:52;2.30;;;1.40;;
51146;SDS011;37207;53.060;18.726;2024-01-25T08:52:18;2.20;;;1.30;;
51146;SDS011;37207;53.060;18.726;2024-01-25T08:54:45;3.70;;;1.50;;
51146;SDS011;37207;53.060;18.726;2024-01-25T08:57:12;4.00;;;1.70;;
51146;SDS011;37207;53.060;18.726;2024-01-25T08:59:38;4.20;;;1.50;;
51146;SDS011;37207;53.060;18.726;2024-01-25T09:02:05;3.90;;;1.70;;
51146;SDS011;37207;53.060;18.726;2024-01-25T09:04:33;3.00;;;1.70;;
51146;SDS011;37207;53.060;18.726;2024-01-25T09:06:59;0.30;;;0.20;;
51146;SDS011;37207;53.060;18.726;2024-01-25T09:09:26;4.00;;;1.80;;
51146;SDS011;37207;53.060;18.726;2024-01-25T09:11:53;4.30;;;2.20;;
51146;SDS011;37207;53.060;18.726;2024-01-25T09:14:20;1.50;;;0.60;;
51146;SDS011;37207;53.060;18.726;2024-01-25T09:16:48;3.30;;;0.60;;
51146;SDS011;37207;53.060;18.726;2024-01-25T09:19:15;3.90;;;2.10;;
51146;SDS011;37207;53.060;18.726;2024-01-25T09:21:41;3.60;;;1.80;;
51146;SDS011;37207;53.060;18.726;2024-01-25T09:24:08;3.30;;;2.10;;
51146;SDS011;37207;53.060;18.726;2024-01-25T09:26:34;4.40;;;1.80;;
51146;SDS011;37207;53.060;18.726;2024-01-25T09:29:01;3.70;;;2.00;;
51146;SDS011;37207;53.060;18.726;2024-01-25T09:31:27;4.00;;;2.10;;
51146;SDS011;37207;53.060;18.726;2024-01-25T09:33:55;4.90;;;2.30;;
51146;SDS011;37207;53.060;18.726;2024-01-25T09:36:21;6.50;;;3.10;;
51146;SDS011;37207;53.060;18.726;2024-01-25T09:38:48;2.10;;;0.80;;
51146;SDS011;37207;53.060;18.726;2024-01-25T09:41:15;4.40;;;2.70;;
51146;SDS011;37207;53.060;18.726;2024-01-25T09:43:41;5.20;;;0.70;;
51146;SDS011;37207;53.060;18.726;2024-01-25T09:46:10;3.80;;;2.30;;
51146;SDS011;37207;53.060;18.726;2024-01-25T09:48:44;5.90;;;2.10;;
51146;SDS011;37207;53.060;18.726;2024-01-25T09:51:12;4.60;;;2.30;;
51146;SDS011;37207;53.060;18.726;2024-01-25T09:53:41;4.40;;;0.70;;
51146;SDS011;37207;53.060;18.726;2024-01-25T09:56:09;2.00;;;0.70;;
51146;SDS011;37207;53.060;18.726;2024-01-25T09:58:39;5.70;;;2.30;;
51146;SDS011;37207;53.060;18.726;2024-01-25T10:01:14;0.90;;;0.80;;
51146;SDS011;37207;53.060;18.726;2024-01-25T10:03:44;6.00;;;2.40;;
51146;SDS011;37207;53.060;18.726;2024-01-25T10:06:12;4.30;;;1.90;;
51146;SDS011;37207;53.060;18.726;2024-01-25T10:08:40;4.80;;;1.70;;
51146;SDS011;37207;53.060;18.726;2024-01-25T10:11:07;1.60;;;0.50;;
51146;SDS011;37207;53.060;18.726;2024-01-25T10:13:44;5.00;;;2.10;;
51146;SDS011;37207;53.060;18.726;2024-01-25T10:16:13;4.10;;;1.90;;
51146;SDS011;37207;53.060;18.726;2024-01-25T10:18:41;2.80;;;1.60;;
51146;SDS011;37207;53.060;18.726;2024-01-25T10:21:09;1.20;;;0.70;;
51146;SDS011;37207;53.060;18.726;2024-01-25T10:23:37;3.40;;;2.10;;
51146;SDS011;37207;53.060;18.726;2024-01-25T10:26:04;6.40;;;2.20;;
51146;SDS011;37207;53.060;18.726;2024-01-25T10:28:30;3.30;;;0.70;;
51146;SDS011;37207;53.060;18.726;2024-01-25T10:31:02;4.00;;;2.10;;
51146;SDS011;37207;53.060;18.726;2024-01-25T10:33:30;1.60;;;0.30;;
51146;SDS011;37207;53.060;18.726;2024-01-25T10:35:57;4.20;;;2.20;;
51146;SDS011;37207;53.060;18.726;2024-01-25T10:38:31;8.30;;;2.50;;
51146;SDS011;37207;53.060;18.726;2024-01-25T10:40:59;7.40;;;0.40;;
51146;SDS011;37207;53.060;18.726;2024-01-25T10:43:30;4.90;;;2.30;;
51146;SDS011;37207;53.060;18.726;2024-01-25T10:45:57;4.70;;;2.10;;
51146;SDS011;37207;53.060;18.726;2024-01-25T10:48:25;3.40;;;0.70;;
51146;SDS011;37207;53.060;18.726;2024-01-25T10:50:55;5.40;;;2.20;;
51146;SDS011;37207;53.060;18.726;2024-01-25T10:53:25;4.50;;;2.20;;
51146;SDS011;37207;53.060;18.726;2024-01-25T10:55:55;4.00;;;2.70;;
51146;SDS011;37207;53.060;18.726;2024-01-25T10:58:22;6.10;;;2.80;;
51146;SDS011;37207;53.060;18.726;2024-01-25T11:00:54;0.60;;;0.20;;
51146;SDS011;37207;53.060;18.726;2024-01-25T11:03:25;9.10;;;3.50;;
51146;SDS011;37207;53.060;18.726;2024-01-25T11:06:10;5.20;;;2.50;;
51146;SDS011;37207;53.060;18.726;2024-01-25T11:08:39;6.90;;;2.70;;
51146;SDS011;37207;53.060;18.726;2024-01-25T11:11:06;2.10;;;1.30;;
51146;SDS011;37207;53.060;18.726;2024-01-25T11:13:43;5.00;;;2.80;;
51146;SDS011;37207;53.060;18.726;2024-01-25T11:16:11;1.90;;;1.00;;
51146;SDS011;37207;53.060;18.726;2024-01-25T11:18:51;4.20;;;2.60;;
51146;SDS011;37207;53.060;18.726;2024-01-25T11:21:24;5.00;;;2.90;;
51146;SDS011;37207;53.060;18.726;2024-01-25T11:24:02;6.00;;;3.30;;
51146;SDS011;37207;53.060;18.726;2024-01-25T11:26:31;7.80;;;3.90;;
51146;SDS011;37207;53.060;18.726;2024-01-25T11:28:59;7.40;;;2.20;;
51146;SDS011;37207;53.060;18.726;2024-01-25T11:31:28;7.50;;;3.40;;
51146;SDS011;37207;53.060;18.726;2024-01-25T11:33:58;8.00;;;5.00;;
51146;SDS011;37207;53.060;18.726;2024-01-25T11:36:26;7.90;;;4.80;;
51146;SDS011;37207;53.060;18.726;2024-01-25T11:38:53;10.30;;;5.30;;
51146;SDS011;37207;53.060;18.726;2024-01-25T11:41:20;3.10;;;1.30;;
51146;SDS011;37207;53.060;18.726;2024-01-25T11:43:50;6.00;;;3.90;;
51146;SDS011;37207;53.060;18.726;2024-01-25T11:46:16;7.40;;;3.70;;
51146;SDS011;37207;53.060;18.726;2024-01-25T11:48:44;6.00;;;3.40;;
51146;SDS011;37207;53.060;18.726;2024-01-25T11:51:10;6.30;;;4.00;;
51146;SDS011;37207;53.060;18.726;2024-01-25T11:53:37;5.80;;;3.90;;
51146;SDS011;37207;53.060;18.726;2024-01-25T11:56:04;6.80;;;4.90;;
51146;SDS011;37207;53.060;18.726;2024-01-25T11:58:37;8.40;;;5.40;;
51146;SDS011;37207;53.060;18.726;2024-01-25T12:01:05;9.30;;;5.10;;
51146;SDS011;37207;53.060;18.726;2024-01-25T12:03:34;7.30;;;4.10;;
51146;SDS011;37207;53.060;18.726;2024-01-25T12:06:06;8.80;;;5.30;;
51146;SDS011;37207;53.060;18.726;2024-01-25T12:08:35;11.30;;;6.10;;
51146;SDS011;37207;53.060;18.726;2024-01-25T12:11:06;4.00;;;1.50;;
51146;SDS011;37207;53.060;18.726;2024-01-25T12:13:38;10.30;;;6.30;;
51146;SDS011;37207;53.060;18.726;2024-01-25T12:16:06;9.00;;;6.10;;
51146;SDS011;37207;53.060;18.726;2024-01-25T12:18:34;11.10;;;7.30;;
51146;SDS011;37207;53.060;18.726;2024-01-25T12:21:02;8.50;;;5.60;;
51146;SDS011;37207;53.060;18.726;2024-01-25T12:23:30;8.20;;;4.20;;
51146;SDS011;37207;53.060;18.726;2024-01-25T12:26:05;5.80;;;3.40;;
51146;SDS011;37207;53.060;18.726;2024-01-25T12:28:37;6.30;;;3.50;;
51146;SDS011;37207;53.060;18.726;2024-01-25T12:31:04;6.70;;;3.90;;
51146;SDS011;37207;53.060;18.726;2024-01-25T12:33:32;3.00;;;0.90;;
51146;SDS011;37207;53.060;18.726;2024-01-25T12:36:00;1.10;;;0.90;;
51146;SDS011;37207;53.060;18.726;2024-01-25T12:38:28;2.70;;;2.10;;
51146;SDS011;37207;53.060;18.726;2024-01-25T12:40:58;3.30;;;1.70;;
51146;SDS011;37207;53.060;18.726;2024-01-25T12:43:24;4.20;;;3.20;;
51146;SDS011;37207;53.060;18.726;2024-01-25T12:45:51;3.70;;;3.30;;
51146;SDS011;37207;53.060;18.726;2024-01-25T12:48:18;4.00;;;3.60;;
51146;SDS011;37207;53.060;18.726;2024-01-25T12:50:44;3.50;;;3.20;;
51146;SDS011;37207;53.060;18.726;2024-01-25T12:53:11;3.40;;;3.00;;
51146;SDS011;37207;53.060;18.726;2024-01-25T12:55:38;4.40;;;3.20;;
51146;SDS011;37207;53.060;18.726;2024-01-25T12:58:05;2.60;;;2.40;;
51146;SDS011;37207;53.060;18.726;2024-01-25T13:00:32;4.00;;;3.60;;
51146;SDS011;37207;53.060;18.726;2024-01-25T13:02:59;1.30;;;0.80;;
51146;SDS011;37207;53.060;18.726;2024-01-25T13:05:29;3.40;;;3.10;;
51146;SDS011;37207;53.060;18.726;2024-01-25T13:08:00;3.40;;;2.80;;
51146;SDS011;37207;53.060;18.726;2024-01-25T13:10:28;1.40;;;1.20;;
51146;SDS011;37207;53.060;18.726;2024-01-25T13:12:55;3.20;;;2.30;;
51146;SDS011;37207;53.060;18.726;2024-01-25T13:15:21;2.40;;;2.20;;
51146;SDS011;37207;53.060;18.726;2024-01-25T13:17:48;2.30;;;2.00;;
51146;SDS011;37207;53.060;18.726;2024-01-25T13:20:14;1.50;;;1.10;;
51146;SDS011;37207;53.060;18.726;2024-01-25T13:22:41;2.10;;;1.80;;
51146;SDS011;37207;53.060;18.726;2024-01-25T13:25:08;2.60;;;2.00;;
51146;SDS011;37207;53.060;18.726;2024-01-25T13:27:37;5.30;;;0.60;;
51146;SDS011;37207;53.060;18.726;2024-01-25T13:30:04;8.50;;;2.50;;
51146;SDS011;37207;53.060;18.726;2024-01-25T13:32:31;2.00;;;1.40;;
51146;SDS011;37207;53.060;18.726;2024-01-25T13:34:58;3.30;;;2.50;;
51146;SDS011;37207;53.060;18.726;2024-01-25T13:37:24;3.30;;;2.70;;
51146;SDS011;37207;53.060;18.726;2024-01-25T13:39:51;2.70;;;2.30;;
51146;SDS011;37207;53.060;18.726;2024-01-25T13:42:17;4.20;;;3.20;;
51146;SDS011;37207;53.060;18.726;2024-01-25T13:44:44;3.40;;;3.10;;
51146;SDS011;37207;53.060;18.726;2024-01-25T13:47:11;4.50;;;4.10;;
51146;SDS011;37207;53.060;18.726;2024-01-25T13:49:38;7.40;;;2.70;;
51146;SDS011;37207;53.060;18.726;2024-01-25T13:52:05;2.50;;;2.30;;
51146;SDS011;37207;53.060;18.726;2024-01-25T13:54:32;3.20;;;2.90;;
51146;SDS011;37207;53.060;18.726;2024-01-25T13:56:58;0.60;;;0.60;;
51146;SDS011;37207;53.060;18.726;2024-01-25T13:59:26;2.60;;;2.40;;
51146;SDS011;37207;53.060;18.726;2024-01-25T14:01:53;2.30;;;2.00;;
51146;SDS011;37207;53.060;18.726;2024-01-25T14:04:20;2.10;;;1.50;;
51146;SDS011;37207;53.060;18.726;2024-01-25T14:06:46;3.50;;;1.30;;
51146;SDS011;37207;53.060;18.726;2024-01-25T14:09:13;4.30;;;1.30;;
51146;SDS011;37207;53.060;18.726;2024-01-25T14:11:39;2.80;;;1.90;;
51146;SDS011;37207;53.060;18.726;2024-01-25T14:14:06;2.20;;;1.90;;
51146;SDS011;37207;53.060;18.726;2024-01-25T14:16:33;0.70;;;0.50;;
51146;SDS011;37207;53.060;18.726;2024-01-25T14:19:00;0.80;;;0.60;;
51146;SDS011;37207;53.060;18.726;2024-01-25T14:21:30;1.70;;;1.00;;
51146;SDS011;37207;53.060;18.726;2024-01-25T14:23:58;2.30;;;2.00;;
51146;SDS011;37207;53.060;18.726;2024-01-25T14:26:25;2.70;;;1.00;;
51146;SDS011;37207;53.060;18.726;2024-01-25T14:28:51;2.60;;;2.00;;
51146;SDS011;37207;53.060;18.726;2024-01-25T14:31:18;3.00;;;2.30;;
51146;SDS011;37207;53.060;18.726;2024-01-25T14:33:45;1.80;;;1.30;;
51146;SDS011;37207;53.060;18.726;2024-01-25T14:36:12;2.00;;;1.10;;
51146;SDS011;37207;53.060;18.726;2024-01-25T14:38:40;6.50;;;2.00;;
51146;SDS011;37207;53.060;18.726;2024-01-25T14:41:08;0.90;;;0.80;;